Linda — OJML — position and weather

sailwx.info

Track history (hours):
 
Tides and Currents Weather Stations Pressure Air Temp Water Temp Dewpoint Dewpoint Depression Visibility Wind Speed Wind Dir Waves Ship Positions

Linda

Last reported at 2015-Jul-30 01:23 UTC. Time now 2015-Jul-30 02:01 UTC.
Position N 54°25' E 005°27'.

Length 141 m; draft 8.1 m.

Type: Ship (hazmat cat A). MMSI: 230984000.

Date/timePositionNaut miles runAvg speedWind from/ knotsBaromVisibWave heightAir tempDewpointWater temp
2015-Jul-30 01:23N 54°25' E 005°27'1113.6
2015-Jul-30 00:33N 54°15' E 005°17'1313.6
2015-Jul-29 23:34N 54°03' E 005°07'1313.5
2015-Jul-29 22:33N 53°51' E 004°59'1413.9
2015-Jul-29 21:32N 53°38' E 004°51'1313.4
2015-Jul-29 20:33N 53°25' E 004°42'1613.8
2015-Jul-29 19:26N 53°11' E 004°31'1214.1
2015-Jul-29 18:34N 53°00' E 004°22'1413.9
2015-Jul-29 17:33N 52°48' E 004°12'1514.9
2015-Jul-29 16:33N 52°35' E 003°59'1514.8
2015-Jul-29 15:33N 52°21' E 003°52'1515.2
2015-Jul-29 14:33N 52°06' E 003°55'1111.5
2015-Jul-29 13:34N 51°58' E 004°09'1110.7
2015-Jul-29 12:33N 51°53' E 004°24'1 0.7
2015-Jul-29 11:31N 51°53' E 004°25'0 0.0
2015-Jul-29 10:31N 51°53' E 004°25'0 0.0
2015-Jul-29 09:31N 51°53' E 004°25'0 0.0
2015-Jul-29 08:31N 51°53' E 004°25'0 0.0
2015-Jul-29 07:31N 51°53' E 004°25'0 0.0
2015-Jul-29 06:31N 51°53' E 004°25'0 0.0
2015-Jul-29 05:31N 51°53' E 004°25'0 0.0
2015-Jul-29 04:31N 51°53' E 004°25'0 0.0
2015-Jul-29 03:31N 51°53' E 004°25'0 0.0
2015-Jul-29 02:31N 51°53' E 004°25'0 0.0
2015-Jul-29 01:31N 51°53' E 004°25'0 0.0
2015-Jul-29 00:31N 51°53' E 004°25'0 0.0
2015-Jul-28 23:31N 51°53' E 004°25'0 0.0
2015-Jul-28 22:31N 51°53' E 004°25'0 0.0
2015-Jul-28 21:31N 51°53' E 004°25'0 0.0
2015-Jul-28 20:31N 51°53' E 004°25'0 0.0
2015-Jul-28 19:31N 51°53' E 004°25'0 0.0
2015-Jul-28 18:31N 51°53' E 004°25'0 0.0
2015-Jul-28 17:28N 51°53' E 004°25'0 0.0
2015-Jul-28 16:31N 51°53' E 004°25'0 0.0
2015-Jul-28 15:31N 51°53' E 004°25'0 0.0
2015-Jul-28 14:31N 51°53' E 004°25'2 1.7
2015-Jul-28 13:34N 51°54' E 004°23'1110.9
2015-Jul-28 12:33N 51°59' E 004°07'1514.7
2015-Jul-28 11:33N 52°02' E 003°44'7216.2
2015-Jul-28 07:07N 52°47' E 002°11'1017.4
2015-Jul-28 06:33N 52°53' E 001°59'1817.7
2015-Jul-28 05:33N 53°04' E 001°37'4117.4
2015-Jul-28 03:11N 53°36' E 000°52'1117.4
2015-Jul-28 02:33N 53°44' E 000°40'1717.6
2015-Jul-28 01:33N 53°58' E 000°21'1817.6
2015-Jul-28 00:33N 54°11' E 000°01'1717.3
2015-Jul-27 23:33N 54°24' W 000°19'1716.7
2015-Jul-27 22:33N 54°34' W 000°42'16 1.3
2015-Jul-27 10:23N 54°36' W 001°09'0 0.0
2015-Jul-27 08:29N 54°36' W 001°09'0 0.0
2015-Jul-27 07:11N 54°36' W 001°09'0 0.0
2015-Jul-27 06:26N 54°36' W 001°09'4 1.5
2015-Jul-27 04:09N 54°40' W 001°08'711.7
2015-Jul-27 03:33N 54°44' W 000°58'1211.6
2015-Jul-27 02:32N 54°49' W 000°40'1313.3
2015-Jul-27 01:33N 54°55' W 000°20'31912.7
2015-Jul-26 00:33N 57°13' E 008°15'1313.3
2015-Jul-25 23:33N 57°18' E 008°37'6214.3
2015-Jul-25 19:13N 57°44' E 010°22'1115.3
2015-Jul-25 18:29N 57°47' E 010°42'1314.2
2015-Jul-25 17:34N 57°40' E 011°03'1514.8
2015-Jul-25 16:33N 57°30' E 011°23'1414.2
2015-Jul-25 15:33N 57°17' E 011°34'1514.8
2015-Jul-25 14:33N 57°03' E 011°42'1514.7
2015-Jul-25 13:33N 56°49' E 011°51'13113.8
2015-Jul-25 04:04N 54°42' E 010°53'916.9
2015-Jul-25 03:33N 54°38' E 011°06'1717.1
2015-Jul-25 02:33N 54°30' E 011°33'1616.0
2015-Jul-25 01:33N 54°26' E 011°59'1313.5
2015-Jul-25 00:34N 54°36' E 012°16'1616.2
2015-Jul-24 23:33N 54°46' E 012°38'1616.3
2015-Jul-24 22:33N 54°52' E 013°04'1716.6
2015-Jul-24 21:33N 54°58' E 013°31'1716.7
2015-Jul-24 20:33N 55°04' E 013°59'1616.0
2015-Jul-24 19:33N 55°15' E 014°18'1616.0
2015-Jul-24 18:33N 55°27' E 014°36'1616.3
2015-Jul-24 17:33N 55°35' E 015°02'1615.9
2015-Jul-24 16:33N 55°43' E 015°26'2015.9
2015-Jul-24 15:19N 55°53' E 015°56'1415.8
2015-Jul-24 14:24N 56°00' E 016°19'271 7.2
2015-Jul-23 00:33N 59°18' E 022°03'1717.1
2015-Jul-22 23:33N 59°29' E 022°30'3517.2
2015-Jul-22 21:33N 59°40' E 023°34'59 1.4
2015-Jul-21 04:14N 60°11' E 025°13'1014.1
2015-Jul-21 03:33N 60°02' E 025°07'1211.4
2015-Jul-21 02:31N 59°57' E 025°28'1111.8
2015-Jul-21 01:33N 59°56' E 025°51'1612.8
2015-Jul-21 00:20N 59°60' E 026°21'1112.4
2015-Jul-20 23:27N 60°01' E 026°43'1112.4
2015-Jul-20 22:33N 60°00' E 027°06'1313.0
2015-Jul-20 21:33N 60°07' E 027°28'6310.5
2015-Jul-20 15:33N 60°01' E 029°33'5 4.5
2015-Jul-20 14:31N 60°00' E 029°43'0 0.0
2015-Jul-20 13:28N 60°00' E 029°43'0 0.0
2015-Jul-20 08:22N 60°00' E 029°43'0 0.0
2015-Jul-20 07:28N 60°00' E 029°43'0 0.0
2015-Jul-20 06:31N 60°00' E 029°43'0 0.0
2015-Jul-20 05:28N 60°00' E 029°43'1 1.1
2015-Jul-20 04:32N 59°59' E 029°42'  
Track history (hours):
 
Tides and Currents Weather Stations Pressure Air Temp Water Temp Dewpoint Dewpoint Depression Visibility Wind Speed Wind Dir Waves Ship Positions

Linda

Last reported at 2015-Jul-30 01:23 UTC. Time now 2015-Jul-30 02:01 UTC.
Position N 54°25' E 005°27'.

Length 141 m; draft 8.1 m.

Type: Ship (hazmat cat A). MMSI: 230984000.

Date/timePositionNaut miles runAvg speedWind from/ knotsBaromVisibWave heightAir tempDewpointWater temp
2015-Jul-30 01:23N 54°25' E 005°27'1113.6
2015-Jul-30 00:33N 54°15' E 005°17'1313.6
2015-Jul-29 23:34N 54°03' E 005°07'1313.5
2015-Jul-29 22:33N 53°51' E 004°59'1413.9
2015-Jul-29 21:32N 53°38' E 004°51'1313.4
2015-Jul-29 20:33N 53°25' E 004°42'1613.8
2015-Jul-29 19:26N 53°11' E 004°31'1214.1
2015-Jul-29 18:34N 53°00' E 004°22'1413.9
2015-Jul-29 17:33N 52°48' E 004°12'1514.9
2015-Jul-29 16:33N 52°35' E 003°59'1514.8
2015-Jul-29 15:33N 52°21' E 003°52'1515.2
2015-Jul-29 14:33N 52°06' E 003°55'1111.5
2015-Jul-29 13:34N 51°58' E 004°09'1110.7
2015-Jul-29 12:33N 51°53' E 004°24'1 0.7
2015-Jul-29 11:31N 51°53' E 004°25'0 0.0
2015-Jul-29 10:31N 51°53' E 004°25'0 0.0
2015-Jul-29 09:31N 51°53' E 004°25'0 0.0
2015-Jul-29 08:31N 51°53' E 004°25'0 0.0
2015-Jul-29 07:31N 51°53' E 004°25'0 0.0
2015-Jul-29 06:31N 51°53' E 004°25'0 0.0
2015-Jul-29 05:31N 51°53' E 004°25'0 0.0
2015-Jul-29 04:31N 51°53' E 004°25'0 0.0
2015-Jul-29 03:31N 51°53' E 004°25'0 0.0
2015-Jul-29 02:31N 51°53' E 004°25'0 0.0
2015-Jul-29 01:31N 51°53' E 004°25'0 0.0
2015-Jul-29 00:31N 51°53' E 004°25'0 0.0
2015-Jul-28 23:31N 51°53' E 004°25'0 0.0
2015-Jul-28 22:31N 51°53' E 004°25'0 0.0
2015-Jul-28 21:31N 51°53' E 004°25'0 0.0
2015-Jul-28 20:31N 51°53' E 004°25'0 0.0
2015-Jul-28 19:31N 51°53' E 004°25'0 0.0
2015-Jul-28 18:31N 51°53' E 004°25'0 0.0
2015-Jul-28 17:28N 51°53' E 004°25'0 0.0
2015-Jul-28 16:31N 51°53' E 004°25'0 0.0
2015-Jul-28 15:31N 51°53' E 004°25'0 0.0
2015-Jul-28 14:31N 51°53' E 004°25'2 1.7
2015-Jul-28 13:34N 51°54' E 004°23'1110.9
2015-Jul-28 12:33N 51°59' E 004°07'1514.7
2015-Jul-28 11:33N 52°02' E 003°44'7216.2
2015-Jul-28 07:07N 52°47' E 002°11'1017.4
2015-Jul-28 06:33N 52°53' E 001°59'1817.7
2015-Jul-28 05:33N 53°04' E 001°37'4117.4
2015-Jul-28 03:11N 53°36' E 000°52'1117.4
2015-Jul-28 02:33N 53°44' E 000°40'1717.6
2015-Jul-28 01:33N 53°58' E 000°21'1817.6
2015-Jul-28 00:33N 54°11' E 000°01'1717.3
2015-Jul-27 23:33N 54°24' W 000°19'1716.7
2015-Jul-27 22:33N 54°34' W 000°42'16 1.3
2015-Jul-27 10:23N 54°36' W 001°09'0 0.0
2015-Jul-27 08:29N 54°36' W 001°09'0 0.0
2015-Jul-27 07:11N 54°36' W 001°09'0 0.0
2015-Jul-27 06:26N 54°36' W 001°09'4 1.5
2015-Jul-27 04:09N 54°40' W 001°08'711.7
2015-Jul-27 03:33N 54°44' W 000°58'1211.6
2015-Jul-27 02:32N 54°49' W 000°40'1313.3
2015-Jul-27 01:33N 54°55' W 000°20'31912.7
2015-Jul-26 00:33N 57°13' E 008°15'1313.3
2015-Jul-25 23:33N 57°18' E 008°37'6214.3
2015-Jul-25 19:13N 57°44' E 010°22'1115.3
2015-Jul-25 18:29N 57°47' E 010°42'1314.2
2015-Jul-25 17:34N 57°40' E 011°03'1514.8
2015-Jul-25 16:33N 57°30' E 011°23'1414.2
2015-Jul-25 15:33N 57°17' E 011°34'1514.8
2015-Jul-25 14:33N 57°03' E 011°42'1514.7
2015-Jul-25 13:33N 56°49' E 011°51'13113.8
2015-Jul-25 04:04N 54°42' E 010°53'916.9
2015-Jul-25 03:33N 54°38' E 011°06'1717.1
2015-Jul-25 02:33N 54°30' E 011°33'1616.0
2015-Jul-25 01:33N 54°26' E 011°59'1313.5
2015-Jul-25 00:34N 54°36' E 012°16'1616.2
2015-Jul-24 23:33N 54°46' E 012°38'1616.3
2015-Jul-24 22:33N 54°52' E 013°04'1716.6
2015-Jul-24 21:33N 54°58' E 013°31'1716.7
2015-Jul-24 20:33N 55°04' E 013°59'1616.0
2015-Jul-24 19:33N 55°15' E 014°18'1616.0
2015-Jul-24 18:33N 55°27' E 014°36'1616.3
2015-Jul-24 17:33N 55°35' E 015°02'1615.9
2015-Jul-24 16:33N 55°43' E 015°26'2015.9
2015-Jul-24 15:19N 55°53' E 015°56'1415.8
2015-Jul-24 14:24N 56°00' E 016°19'271 7.2
2015-Jul-23 00:33N 59°18' E 022°03'1717.1
2015-Jul-22 23:33N 59°29' E 022°30'3517.2
2015-Jul-22 21:33N 59°40' E 023°34'59 1.4
2015-Jul-21 04:14N 60°11' E 025°13'1014.1
2015-Jul-21 03:33N 60°02' E 025°07'1211.4
2015-Jul-21 02:31N 59°57' E 025°28'1111.8
2015-Jul-21 01:33N 59°56' E 025°51'1612.8
2015-Jul-21 00:20N 59°60' E 026°21'1112.4
2015-Jul-20 23:27N 60°01' E 026°43'1112.4
2015-Jul-20 22:33N 60°00' E 027°06'1313.0
2015-Jul-20 21:33N 60°07' E 027°28'6310.5
2015-Jul-20 15:33N 60°01' E 029°33'5 4.5
2015-Jul-20 14:31N 60°00' E 029°43'0 0.0
2015-Jul-20 13:28N 60°00' E 029°43'0 0.0
2015-Jul-20 08:22N 60°00' E 029°43'0 0.0
2015-Jul-20 07:28N 60°00' E 029°43'0 0.0
2015-Jul-20 06:31N 60°00' E 029°43'0 0.0
2015-Jul-20 05:28N 60°00' E 029°43'1 1.1
2015-Jul-20 04:32N 59°59' E 029°42'  

Dump ship's entire track history